Time;durP1;ratioP1;P1;durP2;ratioP2;P2;SDS_P1;SDS_P2;PMS_P1;PMS_P2;Temp;Humidity;BMP_temperature;BMP_pressure;BME280_temperature;BME280_humidity;BME280_pressure;Samples;Min_cycle;Max_cycle;Signal;HPM_P1;HPM_P2
2022/08/10 00:01:43;;;;;;;4.45;3.20;;;;;;;21.93;55.47;94753.16;5012910;28;20267;-73
2022/08/10 00:04:09;;;;;;;4.20;3.42;;;;;;;21.73;55.90;94757.50;5012140;28;20201;-73
2022/08/10 00:06:36;;;;;;;4.32;2.70;;;;;;;21.91;55.80;94750.00;5012678;28;20204;-73
2022/08/10 00:09:04;;;;;;;2.30;2.03;;;;;;;21.73;56.28;94754.75;5012139;28;20294;-73
2022/08/10 00:11:31;;;;;;;4.82;3.42;;;;;;;21.89;55.84;94749.63;5012456;28;20208;-73
2022/08/10 00:13:59;;;;;;;5.05;2.95;;;;;;;21.47;55.89;94758.72;5012148;28;20279;-73
2022/08/10 00:16:26;;;;;;;6.00;3.05;;;;;;;21.57;56.97;94757.94;5011880;28;20714;-74
2022/08/10 00:18:53;;;;;;;3.90;2.25;;;;;;;21.92;56.01;94757.09;5012237;28;20205;-71
2022/08/10 00:21:19;;;;;;;3.15;2.40;;;;;;;21.86;56.09;94746.88;5012375;28;20279;-74
2022/08/10 00:23:46;;;;;;;3.83;2.72;;;;;;;21.96;55.63;94757.91;5011748;28;20201;-72
2022/08/10 00:26:13;;;;;;;2.58;2.08;;;;;;;21.51;57.06;94753.22;5011558;28;20209;-72
2022/08/10 00:28:40;;;;;;;3.08;2.28;;;;;;;21.03;57.82;94750.00;5011839;28;20212;-72
2022/08/10 00:31:08;;;;;;;3.38;2.67;;;;;;;21.26;57.72;94753.22;5011806;28;20205;-72
2022/08/10 00:33:35;;;;;;;3.28;2.33;;;;;;;21.95;56.10;94739.75;5012025;28;20606;-73
2022/08/10 00:36:02;;;;;;;4.28;2.83;;;;;;;22.39;54.77;94735.72;5011873;28;20263;-72
2022/08/10 00:38:28;;;;;;;5.32;2.97;;;;;;;22.32;55.13;94735.75;5011820;28;20216;-72
2022/08/10 00:40:55;;;;;;;4.05;3.00;;;;;;;22.28;55.31;94751.50;5011128;28;20335;-73
2022/08/10 00:43:22;;;;;;;3.58;2.53;;;;;;;22.40;54.96;94740.06;5011241;28;20205;-72
2022/08/10 00:45:49;;;;;;;4.05;2.60;;;;;;;22.19;55.32;94748.41;5011498;28;20201;-72
2022/08/10 00:48:17;;;;;;;4.72;2.50;;;;;;;22.35;55.01;94751.50;5011344;28;20212;-73
2022/08/10 00:50:44;;;;;;;3.25;2.63;;;;;;;22.06;56.11;94752.78;5011498;28;20212;-73
2022/08/10 00:53:11;;;;;;;3.88;2.55;;;;;;;22.08;55.94;94755.94;5011102;28;20921;-73
2022/08/10 00:55:38;;;;;;;5.43;3.78;;;;;;;21.96;56.35;94760.66;5011155;28;20197;-73
2022/08/10 00:58:06;;;;;;;4.15;3.55;;;;;;;22.13;56.43;94755.53;5011586;28;20236;-73
2022/08/10 01:00:34;;;;;;;3.60;2.25;;;;;;;22.15;56.22;94753.13;5011547;28;20706;-72
2022/08/10 01:03:00;;;;;;;4.65;2.83;;;;;;;22.34;55.59;94749.94;5011270;28;20254;-72
2022/08/10 01:05:29;;;;;;;3.55;2.30;;;;;;;22.22;55.46;94753.91;5011099;28;20209;-73
2022/08/10 01:08:20;;;;;;;3.80;2.40;;;;;;;21.83;57.53;94759.50;5011539;28;20613;-72
2022/08/10 01:10:56;;;;;;;3.88;2.45;;;;;;;21.71;57.42;94751.63;5003870;28;20303;-72
2022/08/10 01:13:30;;;;;;;4.82;2.97;;;;;;;21.03;59.61;94761.81;5011436;28;20193;-72
2022/08/10 01:16:04;;;;;;;3.92;2.78;;;;;;;20.88;60.33;94760.22;4998621;28;20236;-72
2022/08/10 01:18:40;;;;;;;5.35;3.13;;;;;;;21.16;59.17;94754.75;5011414;28;20263;-71
2022/08/10 01:21:29;;;;;;;3.10;2.67;;;;;;;21.54;58.02;94746.91;5011237;28;20192;-73
2022/08/10 01:24:14;;;;;;;4.78;3.25;;;;;;;21.03;59.16;94750.78;5010704;28;20622;-73
2022/08/10 01:26:56;;;;;;;3.45;2.60;;;;;;;20.97;59.09;94760.63;5010483;28;20208;-73
2022/08/10 01:29:45;;;;;;;4.40;2.65;;;;;;;21.01;58.90;94757.88;5010661;28;20571;-73
2022/08/10 01:32:14;;;;;;;3.22;2.80;;;;;;;21.31;57.98;94754.78;4991294;28;20256;-73
2022/08/10 01:34:44;;;;;;;5.75;2.72;;;;;;;;;;5005075;28;20258;-74
2022/08/10 01:37:15;;;;;;;2.55;2.22;;;;;;;21.17;58.39;94750.81;5011050;28;20233;-72
2022/08/10 01:39:46;;;;;;;3.67;2.67;;;;;;;21.83;56.57;94753.97;5010553;28;20648;-73
2022/08/10 01:42:16;;;;;;;6.18;3.67;;;;;;;21.65;56.92;94747.69;5010932;28;20201;-73
2022/08/10 01:44:51;;;;;;;3.17;2.00;;;;;;;21.50;57.62;94751.63;5010870;28;20205;-72
2022/08/10 01:50:09;;;;;;;3.67;2.28;;;;;;;21.57;57.69;94757.94;4998558;28;20205;-73
2022/08/10 01:52:41;;;;;;;4.97;2.28;;;;;;;21.51;57.38;94747.69;5010729;28;20763;-73
2022/08/10 01:55:12;;;;;;;3.65;2.53;;;;;;;21.44;57.84;94747.72;5010200;28;20193;-73
2022/08/10 01:57:41;;;;;;;3.45;2.58;;;;;;;21.36;57.77;94740.59;5010385;28;20232;-72
2022/08/10 02:00:11;;;;;;;3.00;2.30;;;;;;;21.37;58.06;94736.66;5010272;28;20209;-73
2022/08/10 02:02:40;;;;;;;4.53;2.95;;;;;;;21.25;58.42;94741.41;5010917;28;20205;-73
2022/08/10 02:05:08;;;;;;;2.88;2.35;;;;;;;21.26;58.69;94742.19;5009922;28;20599;-73
2022/08/10 02:07:37;;;;;;;4.82;3.58;;;;;;;21.08;59.21;94727.56;5010232;28;20205;-73
2022/08/10 02:10:09;;;;;;;4.65;2.83;;;;;;;19.87;62.10;94749.91;5010103;28;20299;-73
2022/08/10 02:12:37;;;;;;;3.55;2.40;;;;;;;19.81;63.42;94754.22;5010323;28;20259;-72
2022/08/10 02:15:08;;;;;;;5.25;2.95;;;;;;;20.85;60.02;94749.97;5009879;28;20286;-74
2022/08/10 02:17:39;;;;;;;3.53;2.70;;;;;;;20.73;60.14;94748.38;4980731;28;20224;-73
2022/08/10 02:20:11;;;;;;;3.17;2.50;;;;;;;21.01;59.90;94735.84;5010104;28;20409;-73
2022/08/10 02:22:40;;;;;;;3.63;2.50;;;;;;;21.01;59.59;94731.13;5010375;28;20219;-73
2022/08/10 02:25:08;;;;;;;3.65;2.53;;;;;;;21.17;59.09;94728.78;5009424;28;20659;-73
2022/08/10 02:27:36;;;;;;;3.65;2.35;;;;;;;20.06;62.62;94742.56;5009531;28;20656;-72
2022/08/10 02:30:05;;;;;;;3.72;2.90;;;;;;;19.90;63.32;94751.13;5009199;28;20258;-72
2022/08/10 02:32:33;;;;;;;2.78;2.40;;;;;;;20.13;62.68;94742.59;5009542;28;20740;-72
2022/08/10 02:35:04;;;;;;;4.03;3.10;;;;;;;21.27;59.30;94750.06;5009881;28;20205;-72
2022/08/10 02:37:31;;;;;;;4.65;2.78;;;;;;;21.18;59.42;94746.09;5009879;28;20703;-73
2022/08/10 02:39:58;;;;;;;5.40;3.63;;;;;;;20.64;61.51;94749.91;5009334;28;20258;-73
2022/08/10 02:42:28;;;;;;;4.78;2.78;;;;;;;20.67;61.00;94738.09;5009488;28;20213;-72
2022/08/10 02:45:01;;;;;;;3.50;2.40;;;;;;;19.77;64.08;94763.59;5009421;28;20235;-72
2022/08/10 02:47:32;;;;;;;8.07;2.60;;;;;;;19.90;63.93;94751.13;5009995;28;20730;-72
2022/08/10 02:50:07;;;;;;;3.92;2.60;;;;;;;20.22;62.79;94751.28;4996895;28;20193;-72
2022/08/10 02:52:40;;;;;;;4.68;2.80;;;;;;;20.14;63.37;94755.16;5010719;28;20262;-72
2022/08/10 02:55:15;;;;;;;3.35;2.72;;;;;;;20.63;61.79;94745.59;5010404;28;20714;-73
2022/08/10 02:57:47;;;;;;;3.10;2.28;;;;;;;20.76;61.21;94752.31;5009738;28;20282;-72
2022/08/10 03:00:15;;;;;;;3.88;2.70;;;;;;;21.01;60.74;94755.13;5009433;28;20741;-73
2022/08/10 03:02:46;;;;;;;2.90;2.50;;;;;;;20.82;61.49;94759.00;5009544;28;20608;-73
2022/08/10 03:05:16;;;;;;;3.20;2.85;;;;;;;20.72;61.50;94757.81;5010050;28;20237;-72
2022/08/10 03:07:48;;;;;;;4.15;2.90;;;;;;;20.64;61.95;94749.91;5010013;28;20222;-73
2022/08/10 03:10:18;;;;;;;4.05;2.50;;;;;;;20.56;61.82;94754.59;5009637;28;20247;-73
2022/08/10 03:12:49;;;;;;;2.60;2.15;;;;;;;20.64;61.79;94752.66;5009818;28;20236;-73
2022/08/10 03:15:18;;;;;;;5.72;2.75;;;;;;;20.70;61.83;94759.38;5009141;28;20245;-73
2022/08/10 03:17:46;;;;;;;3.55;2.55;;;;;;;20.84;60.63;94754.69;5011680;28;20762;-72
2022/08/10 03:20:16;;;;;;;3.55;2.50;;;;;;;20.72;60.38;94755.03;5013024;28;20675;-73
2022/08/10 03:22:45;;;;;;;3.78;2.65;;;;;;;20.89;60.13;94762.56;5013432;28;20204;-72
2022/08/10 03:25:13;;;;;;;3.80;3.00;;;;;;;20.61;60.93;94761.69;5013265;28;20288;-72
2022/08/10 03:27:42;;;;;;;4.05;2.83;;;;;;;20.84;60.61;94759.41;5012753;28;20291;-72
2022/08/10 03:30:11;;;;;;;3.50;2.40;;;;;;;20.68;60.67;94762.50;5012844;28;20212;-72
2022/08/10 03:32:38;;;;;;;3.58;2.78;;;;;;;20.58;60.98;94764.06;5012743;28;20635;-72
2022/08/10 03:35:07;;;;;;;3.42;2.67;;;;;;;20.61;60.96;94764.44;5012724;28;20610;-72
2022/08/10 03:37:36;;;;;;;4.35;3.15;;;;;;;20.91;60.12;94762.16;5012767;28;20706;-72
2022/08/10 03:40:03;;;;;;;2.92;2.63;;;;;;;20.93;59.86;94765.31;5012829;28;20205;-72
2022/08/10 03:42:32;;;;;;;5.65;3.13;;;;;;;21.39;58.98;94767.38;5012808;28;20205;-72
2022/08/10 03:45:03;;;;;;;4.40;2.80;;;;;;;21.17;59.68;94772.06;5013027;28;20209;-72
2022/08/10 03:47:32;;;;;;;4.55;3.05;;;;;;;20.39;62.06;94772.59;5012724;28;20259;-72
2022/08/10 03:50:01;;;;;;;4.38;3.58;;;;;;;21.07;60.22;94776.38;5000082;28;20261;-72
2022/08/10 03:52:29;;;;;;;4.10;2.72;;;;;;;21.62;58.45;94781.56;5012873;28;20713;-72
2022/08/10 03:54:58;;;;;;;6.22;3.28;;;;;;;22.05;57.26;94779.56;5012771;28;20201;-72
2022/08/10 03:57:28;;;;;;;4.43;3.75;;;;;;;22.18;56.98;94768.91;5011943;28;20279;-72
2022/08/10 03:59:55;;;;;;;4.80;2.65;;;;;;;21.76;58.03;94775.25;5012519;28;20204;-72
2022/08/10 04:02:23;;;;;;;7.82;5.40;;;;;;;21.70;58.82;94785.91;5012464;28;20200;-72
2022/08/10 04:04:50;;;;;;;7.35;5.68;;;;;;;21.57;59.37;94790.25;5012773;28;20220;-72
2022/08/10 04:07:17;;;;;;;13.02;6.88;;;;;;;21.75;60.43;94785.50;5013171;28;20201;-83
2022/08/10 04:09:44;;;;;;;8.85;5.20;;;;;;;21.92;60.40;94783.91;5012509;28;20827;-80
2022/08/10 04:12:12;;;;;;;7.40;4.43;;;;;;;22.06;59.96;94788.63;5013091;28;20640;-81
2022/08/10 04:14:39;;;;;;;8.48;4.32;;;;;;;22.40;58.81;94780.69;5012762;28;20295;-77
2022/08/10 04:17:06;;;;;;;8.88;4.43;;;;;;;23.44;55.55;94785.28;5012059;28;20267;-78
2022/08/10 04:19:38;;;;;;;4.22;3.22;;;;;;;24.25;53.32;94774.75;5012643;28;20204;-78
2022/08/10 04:22:10;;;;;;;4.95;4.38;;;;;;;24.88;51.20;94769.63;5012759;28;20197;-79
2022/08/10 04:24:39;;;;;;;4.07;3.00;;;;;;;25.89;49.00;94767.78;5012088;28;20197;-74
2022/08/10 04:27:06;;;;;;;5.88;3.83;;;;;;;26.09;47.75;94772.22;5012141;28;20672;-76
2022/08/10 04:29:35;;;;;;;7.65;4.70;;;;;;;26.84;46.07;94766.00;5011154;28;20201;-75
2022/08/10 04:32:03;;;;;;;5.50;4.10;;;;;;;27.38;45.02;94771.22;5011735;28;20205;-75
2022/08/10 04:34:32;;;;;;;6.07;4.20;;;;;;;27.49;44.68;94765.41;5011552;28;20267;-75
2022/08/10 04:37:01;;;;;;;5.07;3.88;;;;;;;27.40;44.64;94768.78;4991849;28;20292;-75
2022/08/10 04:39:28;;;;;;;5.28;4.32;;;;;;;26.82;46.39;94768.44;5005710;28;20229;-75
2022/08/10 04:41:55;;;;;;;4.35;3.90;;;;;;;26.98;46.08;94775.28;5011252;28;20205;-75
2022/08/10 04:44:22;;;;;;;6.32;4.30;;;;;;;25.72;49.02;94775.19;5011187;28;20738;-75
2022/08/10 04:46:50;;;;;;;7.35;4.80;;;;;;;26.72;47.11;94775.00;5011634;28;20263;-74
2022/08/10 04:49:17;;;;;;;6.90;4.50;;;;;;;27.80;44.80;94763.88;5010732;28;20209;-75
2022/08/10 04:51:44;;;;;;;7.10;4.45;;;;;;;27.82;44.74;94771.81;5010414;28;20220;-74
2022/08/10 04:54:11;;;;;;;8.30;4.22;;;;;;;28.16;44.56;94774.91;5007843;28;20209;-75
2022/08/10 04:56:39;;;;;;;5.22;4.13;;;;;;;28.72;43.02;94771.81;5010301;28;20612;-73
2022/08/10 04:59:07;;;;;;;4.80;3.85;;;;;;;28.56;43.80;94774.69;5010383;28;20228;-73
2022/08/10 05:01:35;;;;;;;6.00;4.43;;;;;;;28.32;44.33;94764.97;5010037;28;20247;-73
2022/08/10 05:04:04;;;;;;;6.43;4.72;;;;;;;28.78;43.53;94775.66;5010819;28;20721;-75
2022/08/10 05:06:31;;;;;;;7.82;4.20;;;;;;;28.37;44.44;94775.59;5010229;28;20225;-74
2022/08/10 05:08:58;;;;;;;7.15;5.10;;;;;;;28.17;45.33;94781.25;5009852;28;20217;-74
2022/08/10 05:11:25;;;;;;;5.72;4.25;;;;;;;27.17;47.22;94782.84;5010240;28;20274;-74
2022/08/10 05:13:52;;;;;;;7.43;4.93;;;;;;;26.87;48.39;94779.06;5009225;28;20208;-76
2022/08/10 05:16:18;;;;;;;6.53;5.20;;;;;;;26.80;48.67;94776.41;5007217;28;20240;-74
2022/08/10 05:18:45;;;;;;;6.50;4.90;;;;;;;26.15;50.47;94776.06;5009911;28;20295;-74
2022/08/10 05:21:13;;;;;;;6.60;4.55;;;;;;;26.81;48.88;94772.41;5009279;28;20196;-76
2022/08/10 05:23:40;;;;;;;7.03;5.00;;;;;;;27.06;48.42;94776.72;5008958;28;20281;-75
2022/08/10 05:26:07;;;;;;;6.32;5.47;;;;;;;27.12;48.50;94774.97;5009378;28;20197;-75
2022/08/10 05:28:34;;;;;;;5.63;4.60;;;;;;;27.29;47.86;94768.25;5009190;28;20208;-75
2022/08/10 05:31:01;;;;;;;7.90;5.28;;;;;;;26.02;51.41;94783.41;5008570;28;20718;-73
2022/08/10 05:33:27;;;;;;;7.05;5.32;;;;;;;27.12;49.12;94780.53;5009169;28;20271;-75
2022/08/10 05:35:54;;;;;;;7.03;5.22;;;;;;;26.90;50.38;94780.19;5009208;28;20204;-73
2022/08/10 05:38:25;;;;;;;6.53;5.18;;;;;;;27.76;48.03;94785.44;5009796;28;20279;-74
2022/08/10 05:40:52;;;;;;;6.35;5.10;;;;;;;28.94;45.59;94778.41;5008730;28;20200;-74
2022/08/10 05:43:21;;;;;;;6.57;5.75;;;;;;;28.21;46.90;94776.41;5009643;28;20263;-74
2022/08/10 05:45:48;;;;;;;6.25;5.03;;;;;;;29.07;45.35;94780.44;5008974;28;20197;-73
2022/08/10 05:48:15;;;;;;;6.40;5.30;;;;;;;29.33;44.47;94782.03;5009785;28;20207;-73
2022/08/10 05:50:42;;;;;;;9.05;5.45;;;;;;;30.20;42.58;94774.09;5009579;28;20213;-74
2022/08/10 05:53:09;;;;;;;7.30;5.53;;;;;;;28.77;45.39;94785.25;5010254;28;20251;-75
2022/08/10 05:55:37;;;;;;;6.20;5.45;;;;;;;28.48;46.45;94784.44;5010430;28;20204;-75
2022/08/10 05:58:04;;;;;;;6.70;6.00;;;;;;;29.10;46.15;94779.56;5009798;28;20241;-74
2022/08/10 06:00:33;;;;;;;7.40;6.22;;;;;;;28.99;45.58;94782.63;5009560;28;20217;-74
2022/08/10 06:03:04;;;;;;;7.00;5.85;;;;;;;28.42;46.17;94787.00;5008924;28;20403;-74
2022/08/10 06:05:34;;;;;;;8.65;6.05;;;;;;;29.45;44.96;94784.09;5000626;28;20215;-74
2022/08/10 06:08:05;;;;;;;8.38;6.78;;;;;;;29.83;44.07;94772.13;4993842;28;20252;-74
2022/08/10 06:10:36;;;;;;;6.65;5.63;;;;;;;29.16;46.02;94783.34;5007081;28;20980;-74
2022/08/10 06:15:55;;;;;;;7.03;5.68;;;;;;;28.73;45.77;94790.13;4969307;28;20235;-77
2022/08/10 06:18:22;;;;;;;8.40;6.03;;;;;;;28.74;45.67;94791.69;5007859;28;20256;-73
2022/08/10 06:20:50;;;;;;;7.97;6.35;;;;;;;29.19;45.10;94788.06;5007116;28;20224;-74
2022/08/10 06:23:17;;;;;;;12.73;6.40;;;;;;;29.02;45.11;94780.97;5007740;28;20370;-76
2022/08/10 06:25:44;;;;;;;13.27;6.20;;;;;;;28.06;46.44;94787.09;5007768;28;20569;-73
2022/08/10 06:28:16;;;;;;;7.50;6.15;;;;;;;28.16;46.89;94783.25;5007166;28;20267;-73
2022/08/10 06:30:46;;;;;;;8.50;6.00;;;;;;;29.80;43.88;94778.59;5006970;28;20204;-74
2022/08/10 06:33:13;;;;;;;8.25;6.70;;;;;;;30.64;42.09;94779.78;5006749;28;20205;-74
2022/08/10 06:35:42;;;;;;;6.50;5.72;;;;;;;31.31;40.00;94773.72;5007826;28;20209;-74
2022/08/10 06:38:11;;;;;;;10.65;6.28;;;;;;;30.00;42.90;94784.75;5006913;28;20698;-73
2022/08/10 06:40:40;;;;;;;8.25;6.57;;;;;;;30.20;42.95;94776.13;5007796;28;20220;-74
2022/08/10 06:43:13;;;;;;;11.45;6.90;;;;;;;30.07;43.38;94784.50;5006727;28;20216;-75
2022/08/10 06:45:47;;;;;;;11.25;6.50;;;;;;;29.34;44.34;94786.41;5008449;28;20710;-75
2022/08/10 06:48:19;;;;;;;9.70;7.13;;;;;;;28.67;45.34;94791.91;5009048;28;20204;-75
2022/08/10 06:50:50;;;;;;;10.02;6.88;;;;;;;28.43;45.58;94791.34;5008586;28;20206;-74
2022/08/10 06:53:19;;;;;;;9.23;6.75;;;;;;;28.74;45.58;94794.47;5011427;28;20211;-72
2022/08/10 06:55:51;;;;;;;10.25;6.75;;;;;;;30.29;43.01;94779.78;5012601;28;20209;-73
2022/08/10 06:58:21;;;;;;;8.75;6.80;;;;;;;30.22;42.65;94788.41;5012603;28;20311;-73
2022/08/10 07:00:52;;;;;;;10.35;6.78;;;;;;;30.75;41.95;94783.00;5012971;28;20255;-74
2022/08/10 07:03:21;;;;;;;10.60;7.68;;;;;;;29.45;43.86;94778.50;5011769;28;20209;-80
2022/08/10 07:05:51;;;;;;;9.10;7.45;;;;;;;28.83;45.28;94793.88;5010918;28;20252;-74
2022/08/10 07:08:20;;;;;;;8.52;6.15;;;;;;;28.98;44.74;94784.66;5011826;28;20233;-74
2022/08/10 07:10:48;;;;;;;7.07;5.85;;;;;;;29.07;43.15;94791.59;5011631;28;20217;-76
2022/08/10 07:13:16;;;;;;;10.57;6.60;;;;;;;30.45;41.87;94775.25;5012414;28;20829;-73
2022/08/10 07:15:44;;;;;;;8.95;6.70;;;;;;;31.12;40.37;94777.69;5012363;28;20648;-73
2022/08/10 07:18:13;;;;;;;12.07;6.40;;;;;;;31.02;39.31;94772.00;5013003;28;20258;-73
2022/08/10 07:20:42;;;;;;;7.55;5.80;;;;;;;31.35;39.18;94774.38;5012908;28;20275;-73
2022/08/10 07:23:11;;;;;;;7.53;6.38;;;;;;;31.48;39.71;94772.28;5012371;28;20618;-73
2022/08/10 07:25:39;;;;;;;11.18;6.72;;;;;;;31.25;38.49;94767.19;5012580;28;20208;-73
2022/08/10 07:28:07;;;;;;;7.40;5.45;;;;;;;31.22;39.25;94784.88;5012911;28;20228;-73
2022/08/10 07:30:38;;;;;;;7.88;6.43;;;;;;;32.97;35.98;94771.69;5012910;28;20205;-74
2022/08/10 07:33:06;;;;;;;8.05;6.60;;;;;;;32.08;38.00;94775.47;5012516;28;20213;-74
2022/08/10 07:35:36;;;;;;;8.95;6.57;;;;;;;32.10;37.73;94761.78;5012280;28;20553;-74
2022/08/10 07:38:05;;;;;;;9.30;7.28;;;;;;;31.16;39.42;94775.53;5012468;28;20215;-74
2022/08/10 07:40:34;;;;;;;9.10;6.85;;;;;;;30.64;40.25;94777.00;5012561;28;20216;-74
2022/08/10 07:43:02;;;;;;;8.32;7.20;;;;;;;29.88;41.00;94777.16;5012204;28;20527;-74
2022/08/10 07:45:33;;;;;;;10.00;7.32;;;;;;;30.29;41.24;94776.97;5012318;28;20263;-74
2022/08/10 07:48:02;;;;;;;7.93;6.45;;;;;;;29.91;40.43;94776.25;5011792;28;20205;-74
2022/08/10 07:50:30;;;;;;;7.57;6.15;;;;;;;30.49;39.94;94770.31;5012309;28;20344;-73
2022/08/10 07:53:02;;;;;;;7.72;6.93;;;;;;;30.74;39.83;94764.66;5012317;28;20205;-74
2022/08/10 07:55:31;;;;;;;8.55;6.95;;;;;;;29.32;42.59;94780.47;5011933;28;20213;-74
2022/08/10 07:58:01;;;;;;;8.00;6.72;;;;;;;30.59;39.66;94769.97;5011563;28;20652;-73
2022/08/10 08:00:31;;;;;;;9.32;6.88;;;;;;;30.25;40.46;94762.34;5011455;28;20243;-73
2022/08/10 08:03:00;;;;;;;8.35;6.38;;;;;;;30.41;39.80;94764.19;5011149;28;20217;-75
2022/08/10 08:05:32;;;;;;;9.02;6.30;;;;;;;29.37;40.89;94765.97;5010452;28;20571;-75
2022/08/10 08:08:02;;;;;;;9.23;6.57;;;;;;;29.31;41.76;94762.16;5012054;28;20233;-75
2022/08/10 08:10:31;;;;;;;11.63;7.28;;;;;;;28.85;42.47;94775.47;5011828;28;20263;-74
2022/08/10 08:13:00;;;;;;;7.82;6.75;;;;;;;29.14;42.25;94769.84;5011378;28;20197;-73
2022/08/10 08:15:28;;;;;;;7.97;6.60;;;;;;;30.49;39.91;94754.31;5010708;28;20238;-73
2022/08/10 08:17:56;;;;;;;7.38;6.40;;;;;;;30.51;40.27;94745.47;5010899;28;20259;-73
2022/08/10 08:20:24;;;;;;;8.25;6.25;;;;;;;30.89;39.40;94757.28;5011350;28;20237;-73
2022/08/10 08:22:52;;;;;;;10.68;6.45;;;;;;;31.16;39.36;94750.34;5011484;28;20205;-73
2022/08/10 08:25:22;;;;;;;6.25;5.65;;;;;;;30.05;40.45;94753.47;5011455;28;20232;-73
2022/08/10 08:27:54;;;;;;;9.45;5.85;;;;;;;29.30;41.24;94755.78;5011213;28;20621;-74
2022/08/10 08:30:23;;;;;;;6.45;5.22;;;;;;;30.21;39.30;94744.13;5010775;28;20304;-73
2022/08/10 08:32:51;;;;;;;7.93;6.18;;;;;;;30.12;40.15;94749.63;5010784;28;20209;-73
2022/08/10 08:35:19;;;;;;;6.82;5.72;;;;;;;30.15;40.23;94752.31;5010412;28;20624;-73
2022/08/10 08:37:48;;;;;;;9.13;5.53;;;;;;;30.69;39.24;94752.03;5011218;28;20731;-73
2022/08/10 08:40:18;;;;;;;9.65;6.00;;;;;;;31.22;37.17;94742.91;4998484;28;20244;-73
2022/08/10 08:43:04;;;;;;;6.15;5.25;;;;;;;30.71;38.81;94737.59;5010261;28;20205;-73
2022/08/10 08:45:42;;;;;;;5.93;5.35;;;;;;;30.67;38.53;94748.91;5010842;28;20690;-73
2022/08/10 08:48:34;;;;;;;7.63;6.20;;;;;;;29.98;39.46;94746.09;5010981;28;20678;-73
2022/08/10 08:51:13;;;;;;;6.13;5.18;;;;;;;29.37;40.95;94748.44;5010689;28;20615;-76
2022/08/10 08:53:57;;;;;;;6.15;4.97;;;;;;;30.34;39.53;94742.09;5011383;28;20205;-74
2022/08/10 08:56:31;;;;;;;7.85;5.78;;;;;;;30.45;39.70;94741.72;5010938;28;20213;-73
2022/08/10 08:59:21;;;;;;;5.88;5.22;;;;;;;31.06;39.23;94743.88;5010536;28;20227;-73
2022/08/10 09:02:07;;;;;;;6.97;5.15;;;;;;;30.08;39.11;94738.56;5011125;28;20735;-73
2022/08/10 09:04:47;;;;;;;6.05;5.20;;;;;;;30.03;39.62;94744.75;5010929;28;20209;-73
2022/08/10 09:07:49;;;;;;;8.10;5.55;;;;;;;29.11;40.69;94744.84;5010381;28;20622;-73
2022/08/10 09:10:25;;;;;;;5.20;4.60;;;;;;;29.59;39.31;94733.38;5010490;28;20205;-74
2022/08/10 09:12:58;;;;;;;10.30;5.50;;;;;;;30.38;38.67;94735.13;5010221;28;20204;-73
2022/08/10 09:15:35;;;;;;;5.78;5.15;;;;;;;30.76;37.58;94728.59;5009857;28;20237;-73
2022/08/10 09:18:21;;;;;;;5.57;4.97;;;;;;;30.52;38.67;94724.66;5010456;28;20209;-73
2022/08/10 09:20:55;;;;;;;8.20;5.22;;;;;;;30.52;38.30;94713.47;4998122;28;20335;-73
2022/08/10 09:23:29;;;;;;;8.18;5.03;;;;;;;29.64;39.54;94724.44;5010770;28;20267;-73
2022/08/10 09:26:02;;;;;;;7.97;5.28;;;;;;;28.89;41.42;94737.09;5010437;28;20208;-73
2022/08/10 09:28:36;;;;;;;7.28;4.80;;;;;;;28.68;41.45;94720.97;5009875;28;20615;-73
2022/08/10 09:31:06;;;;;;;6.80;5.50;;;;;;;28.98;41.35;94728.84;5010465;28;20247;-73
2022/08/10 09:33:47;;;;;;;6.63;5.32;;;;;;;29.38;41.34;94714.53;5009935;28;20291;-73
2022/08/10 09:36:26;;;;;;;6.47;5.57;;;;;;;29.51;40.22;94714.53;5009557;28;20259;-73
2022/08/10 09:39:07;;;;;;;7.15;5.65;;;;;;;29.96;39.40;94712.22;5010421;28;20279;-74
2022/08/10 09:41:45;;;;;;;7.60;4.88;;;;;;;30.71;37.83;94710.41;5010003;28;20733;-73
2022/08/10 09:44:20;;;;;;;5.82;4.90;;;;;;;30.32;38.31;94722.97;5009674;28;20743;-75
2022/08/10 09:47:05;;;;;;;7.80;5.82;;;;;;;30.34;39.16;94717.69;5009559;28;20196;-72
2022/08/10 09:49:38;;;;;;;6.57;5.60;;;;;;;30.80;37.38;94706.09;5009859;28;20288;-72
2022/08/10 09:52:15;;;;;;;8.05;5.35;;;;;;;31.19;37.02;94697.00;5010135;28;20288;-73
2022/08/10 09:54:54;;;;;;;7.85;5.40;;;;;;;31.12;37.31;94693.72;5010073;28;20623;-72
2022/08/10 09:57:34;;;;;;;5.03;4.53;;;;;;;29.53;39.95;94718.41;5009483;28;20209;-73
2022/08/10 10:00:09;;;;;;;4.15;3.75;;;;;;;29.40;39.64;94702.88;5009257;28;20751;-73
2022/08/10 10:02:45;;;;;;;4.47;4.03;;;;;;;29.31;39.08;94714.72;5009949;28;20279;-74
2022/08/10 10:05:27;;;;;;;5.03;3.95;;;;;;;29.03;40.39;94713.56;5009281;28;20576;-74
2022/08/10 10:08:05;;;;;;;5.05;3.92;;;;;;;28.69;40.92;94716.19;5009305;28;20257;-76
2022/08/10 10:10:40;;;;;;;3.40;3.10;;;;;;;28.23;41.47;94707.09;5009912;28;20204;-72
2022/08/10 10:13:11;;;;;;;6.22;3.80;;;;;;;28.86;39.99;94698.94;5009821;28;20201;-72
2022/08/10 10:15:49;;;;;;;6.13;3.40;;;;;;;29.66;39.47;94702.41;5008123;28;20307;-74
2022/08/10 10:18:29;;;;;;;3.75;3.25;;;;;;;28.87;39.91;94717.22;5008864;28;20610;-75
2022/08/10 10:21:05;;;;;;;8.93;3.45;;;;;;;28.66;40.17;94706.69;5008922;28;20569;-77
2022/08/10 10:23:43;;;;;;;4.78;3.00;;;;;;;28.20;41.33;94725.47;5009752;28;20208;-76
2022/08/10 10:26:19;;;;;;;5.93;3.83;;;;;;;28.93;40.61;94698.72;5009273;28;20267;-73
2022/08/10 10:28:57;;;;;;;3.90;3.20;;;;;;;29.90;38.90;94696.47;5009470;28;20557;-73
2022/08/10 10:31:28;;;;;;;4.35;3.42;;;;;;;30.03;38.42;94686.06;5008170;28;20292;-73
2022/08/10 10:34:06;;;;;;;3.47;3.17;;;;;;;29.31;39.97;94698.75;5008911;28;20190;-73
2022/08/10 10:36:35;;;;;;;4.03;3.20;;;;;;;29.07;39.63;94691.16;5009294;28;20243;-74
2022/08/10 10:39:03;;;;;;;3.90;3.13;;;;;;;29.46;40.20;94685.16;5009141;28;20215;-73
2022/08/10 10:41:36;;;;;;;3.47;3.17;;;;;;;29.07;40.94;94682.78;5009478;28;20208;-75
2022/08/10 10:44:16;;;;;;;4.07;3.22;;;;;;;28.55;42.26;94692.28;5009500;28;20205;-76
2022/08/10 10:46:56;;;;;;;4.75;3.63;;;;;;;28.05;42.76;94701.97;5009042;28;20264;-75
2022/08/10 10:49:34;;;;;;;4.55;3.25;;;;;;;27.90;43.88;94689.63;5010039;28;20205;-74
2022/08/10 10:52:12;;;;;;;3.20;2.85;;;;;;;27.32;44.00;94695.06;5009108;28;20667;-75
2022/08/10 10:54:44;;;;;;;3.30;3.00;;;;;;;27.40;44.71;94693.66;5009682;28;20197;-73
2022/08/10 10:57:19;;;;;;;4.22;3.30;;;;;;;27.65;43.53;94689.50;5009599;28;20547;-76
2022/08/10 11:00:00;;;;;;;3.60;3.10;;;;;;;27.94;42.97;94696.69;5008957;28;20209;-75
2022/08/10 11:02:42;;;;;;;3.47;3.17;;;;;;;27.90;42.92;94689.63;5008794;28;20239;-74
2022/08/10 11:05:18;;;;;;;4.25;3.40;;;;;;;27.55;44.37;94686.53;5009364;28;20205;-73
2022/08/10 11:07:53;;;;;;;4.03;3.33;;;;;;;27.61;44.42;94683.25;5008799;28;20232;-75
2022/08/10 11:10:24;;;;;;;3.33;2.67;;;;;;;27.30;44.63;94680.78;5009261;28;20208;-75
2022/08/10 11:13:01;;;;;;;5.70;3.70;;;;;;;27.30;45.12;94674.44;5008980;28;20695;-80
2022/08/10 11:15:35;;;;;;;5.60;3.38;;;;;;;27.71;43.76;94677.41;5008863;28;20232;-73
2022/08/10 11:18:08;;;;;;;3.78;3.10;;;;;;;27.97;43.81;94678.31;5008573;28;20208;-74
2022/08/10 11:20:42;;;;;;;4.55;3.30;;;;;;;27.89;43.70;94683.28;5009084;28;20213;-74
2022/08/10 11:23:20;;;;;;;5.28;3.70;;;;;;;28.23;43.76;94685.59;5009122;28;20205;-74
2022/08/10 11:25:55;;;;;;;4.43;3.63;;;;;;;28.52;42.46;94680.00;5009221;28;20212;-74
2022/08/10 11:28:30;;;;;;;4.15;2.88;;;;;;;28.95;42.23;94675.97;5009016;28;20551;-78
2022/08/10 11:31:01;;;;;;;4.70;3.70;;;;;;;28.48;43.18;94684.09;5009416;28;20209;-75
2022/08/10 11:33:38;;;;;;;5.22;3.70;;;;;;;27.89;44.00;94682.50;5008813;28;20304;-74
2022/08/10 11:36:13;;;;;;;3.65;3.30;;;;;;;27.83;43.85;94676.69;5009147;28;20201;-74
2022/08/10 11:38:49;;;;;;;4.03;3.45;;;;;;;28.02;43.23;94685.38;5010809;28;20267;-75
2022/08/10 11:41:26;;;;;;;4.93;3.40;;;;;;;27.75;44.27;94671.72;5012519;28;20216;-75
2022/08/10 11:44:04;;;;;;;4.63;3.60;;;;;;;28.16;43.00;94663.44;5012827;28;20203;-73
2022/08/10 11:46:34;;;;;;;4.18;3.63;;;;;;;27.92;42.65;94671.28;5012299;28;20205;-73
2022/08/10 11:49:08;;;;;;;3.80;3.00;;;;;;;28.03;43.52;94668.19;5012085;28;20201;-73
2022/08/10 11:51:44;;;;;;;4.82;3.60;;;;;;;28.01;43.00;94656.72;5012074;28;20259;-74
2022/08/10 11:54:25;;;;;;;3.35;3.00;;;;;;;27.88;43.22;94667.78;5012707;28;20205;-73
2022/08/10 11:56:54;;;;;;;3.88;3.17;;;;;;;27.65;43.73;94656.88;5012095;28;20293;-74
2022/08/10 12:02:12;;;;;;;5.18;3.78;;;;;;;26.85;44.83;94661.13;5011801;28;20220;-78